sensor_id;sensor_type;location;lat;lon;timestamp;temperature;humidity
10296;DHT22;5193;51.032;6.356;2023-04-07T00:00:53;8.60;99.90
10296;DHT22;5193;51.032;6.356;2023-04-07T00:03:19;8.60;99.90
10296;DHT22;5193;51.032;6.356;2023-04-07T00:05:46;8.60;99.90
10296;DHT22;5193;51.032;6.356;2023-04-07T00:08:11;8.50;99.90
10296;DHT22;5193;51.032;6.356;2023-04-07T00:10:37;8.60;99.90
10296;DHT22;5193;51.032;6.356;2023-04-07T00:13:03;8.60;99.90
10296;DHT22;5193;51.032;6.356;2023-04-07T00:15:28;8.60;99.90
10296;DHT22;5193;51.032;6.356;2023-04-07T00:17:54;8.60;99.90
10296;DHT22;5193;51.032;6.356;2023-04-07T00:20:20;8.60;99.90
10296;DHT22;5193;51.032;6.356;2023-04-07T00:22:46;8.60;99.90
10296;DHT22;5193;51.032;6.356;2023-04-07T00:25:12;8.60;99.90
10296;DHT22;5193;51.032;6.356;2023-04-07T00:27:38;8.60;99.90
10296;DHT22;5193;51.032;6.356;2023-04-07T00:30:03;8.60;99.90
10296;DHT22;5193;51.032;6.356;2023-04-07T00:32:29;8.60;99.90
10296;DHT22;5193;51.032;6.356;2023-04-07T00:34:55;8.50;99.90
10296;DHT22;5193;51.032;6.356;2023-04-07T00:37:21;8.50;99.90
10296;DHT22;5193;51.032;6.356;2023-04-07T00:39:46;8.50;99.90
10296;DHT22;5193;51.032;6.356;2023-04-07T00:42:12;8.50;99.90
10296;DHT22;5193;51.032;6.356;2023-04-07T00:44:37;8.50;99.90
10296;DHT22;5193;51.032;6.356;2023-04-07T00:47:03;8.50;99.90
10296;DHT22;5193;51.032;6.356;2023-04-07T00:49:29;8.50;99.90
10296;DHT22;5193;51.032;6.356;2023-04-07T00:51:56;8.50;99.90
10296;DHT22;5193;51.032;6.356;2023-04-07T00:54:23;8.50;99.90
10296;DHT22;5193;51.032;6.356;2023-04-07T00:56:49;8.50;99.90
10296;DHT22;5193;51.032;6.356;2023-04-07T00:59:15;8.50;99.90
10296;DHT22;5193;51.032;6.356;2023-04-07T01:04:32;8.50;99.90
10296;DHT22;5193;51.032;6.356;2023-04-07T01:07:03;8.50;99.90
10296;DHT22;5193;51.032;6.356;2023-04-07T01:09:36;8.50;99.90
10296;DHT22;5193;51.032;6.356;2023-04-07T01:15:10;8.50;99.90
10296;DHT22;5193;51.032;6.356;2023-04-07T01:17:39;8.50;99.90
10296;DHT22;5193;51.032;6.356;2023-04-07T01:20:10;8.50;99.90
10296;DHT22;5193;51.032;6.356;2023-04-07T01:22:46;8.50;99.90
10296;DHT22;5193;51.032;6.356;2023-04-07T01:30:31;8.50;99.90
10296;DHT22;5193;51.032;6.356;2023-04-07T01:32:58;8.50;99.90
10296;DHT22;5193;51.032;6.356;2023-04-07T01:35:26;8.50;99.90
10296;DHT22;5193;51.032;6.356;2023-04-07T01:37:54;8.50;99.90
10296;DHT22;5193;51.032;6.356;2023-04-07T01:40:20;8.50;99.90
10296;DHT22;5193;51.032;6.356;2023-04-07T01:42:47;8.50;99.90
10296;DHT22;5193;51.032;6.356;2023-04-07T01:45:15;8.50;99.90
10296;DHT22;5193;51.032;6.356;2023-04-07T01:47:42;8.50;99.90
10296;DHT22;5193;51.032;6.356;2023-04-07T01:50:10;8.50;99.90
10296;DHT22;5193;51.032;6.356;2023-04-07T01:52:36;8.50;99.90
10296;DHT22;5193;51.032;6.356;2023-04-07T01:55:03;8.60;99.90
10296;DHT22;5193;51.032;6.356;2023-04-07T01:57:29;8.50;99.90
10296;DHT22;5193;51.032;6.356;2023-04-07T01:59:55;8.50;99.90
10296;DHT22;5193;51.032;6.356;2023-04-07T02:02:21;8.50;99.90
10296;DHT22;5193;51.032;6.356;2023-04-07T02:04:58;8.50;99.90
10296;DHT22;5193;51.032;6.356;2023-04-07T02:07:31;8.50;99.90
10296;DHT22;5193;51.032;6.356;2023-04-07T02:10:01;8.50;99.90
10296;DHT22;5193;51.032;6.356;2023-04-07T02:12:29;8.50;99.90
10296;DHT22;5193;51.032;6.356;2023-04-07T02:14:55;8.50;99.90
10296;DHT22;5193;51.032;6.356;2023-04-07T02:17:25;8.50;99.90
10296;DHT22;5193;51.032;6.356;2023-04-07T02:19:52;8.50;99.90
10296;DHT22;5193;51.032;6.356;2023-04-07T02:22:18;8.50;99.90
10296;DHT22;5193;51.032;6.356;2023-04-07T02:24:44;8.50;99.90
10296;DHT22;5193;51.032;6.356;2023-04-07T02:27:10;8.40;99.90
10296;DHT22;5193;51.032;6.356;2023-04-07T02:29:35;8.40;99.90
10296;DHT22;5193;51.032;6.356;2023-04-07T02:32:01;8.40;99.90
10296;DHT22;5193;51.032;6.356;2023-04-07T02:34:26;8.40;99.90
10296;DHT22;5193;51.032;6.356;2023-04-07T02:36:52;8.40;99.90
10296;DHT22;5193;51.032;6.356;2023-04-07T02:39:18;8.40;99.90
10296;DHT22;5193;51.032;6.356;2023-04-07T02:41:43;8.40;99.90
10296;DHT22;5193;51.032;6.356;2023-04-07T02:44:09;8.40;99.90
10296;DHT22;5193;51.032;6.356;2023-04-07T02:46:34;8.40;99.90
10296;DHT22;5193;51.032;6.356;2023-04-07T02:49:00;8.40;99.90
10296;DHT22;5193;51.032;6.356;2023-04-07T02:51:26;8.30;99.90
10296;DHT22;5193;51.032;6.356;2023-04-07T02:53:51;8.40;99.90
10296;DHT22;5193;51.032;6.356;2023-04-07T02:56:17;8.30;99.90
10296;DHT22;5193;51.032;6.356;2023-04-07T02:58:43;8.30;99.90
10296;DHT22;5193;51.032;6.356;2023-04-07T03:01:09;8.30;99.90
10296;DHT22;5193;51.032;6.356;2023-04-07T03:03:34;8.20;99.90
10296;DHT22;5193;51.032;6.356;2023-04-07T03:06:00;8.20;99.90
10296;DHT22;5193;51.032;6.356;2023-04-07T03:08:26;8.20;99.90
10296;DHT22;5193;51.032;6.356;2023-04-07T03:10:51;8.20;99.90
10296;DHT22;5193;51.032;6.356;2023-04-07T03:13:17;8.20;99.90
10296;DHT22;5193;51.032;6.356;2023-04-07T03:15:44;8.20;99.90
10296;DHT22;5193;51.032;6.356;2023-04-07T03:18:09;8.20;99.90
10296;DHT22;5193;51.032;6.356;2023-04-07T03:20:36;8.20;99.90
10296;DHT22;5193;51.032;6.356;2023-04-07T03:23:02;8.20;99.90
10296;DHT22;5193;51.032;6.356;2023-04-07T03:25:27;8.20;99.90
10296;DHT22;5193;51.032;6.356;2023-04-07T03:27:53;8.20;99.90
10296;DHT22;5193;51.032;6.356;2023-04-07T03:30:19;8.20;99.90
10296;DHT22;5193;51.032;6.356;2023-04-07T03:32:45;8.20;99.90
10296;DHT22;5193;51.032;6.356;2023-04-07T03:35:10;8.10;99.90
10296;DHT22;5193;51.032;6.356;2023-04-07T03:37:36;8.20;99.90
10296;DHT22;5193;51.032;6.356;2023-04-07T03:40:02;8.10;99.90
10296;DHT22;5193;51.032;6.356;2023-04-07T03:42:27;8.10;99.90
10296;DHT22;5193;51.032;6.356;2023-04-07T03:44:53;8.10;99.90
10296;DHT22;5193;51.032;6.356;2023-04-07T03:47:18;8.10;99.90
10296;DHT22;5193;51.032;6.356;2023-04-07T03:49:44;8.10;99.90
10296;DHT22;5193;51.032;6.356;2023-04-07T03:52:09;8.00;99.90
10296;DHT22;5193;51.032;6.356;2023-04-07T03:54:35;8.00;99.90
10296;DHT22;5193;51.032;6.356;2023-04-07T03:57:01;8.00;99.90
10296;DHT22;5193;51.032;6.356;2023-04-07T03:59:27;8.00;99.90
10296;DHT22;5193;51.032;6.356;2023-04-07T04:01:53;8.00;99.90
10296;DHT22;5193;51.032;6.356;2023-04-07T04:04:18;8.00;99.90
10296;DHT22;5193;51.032;6.356;2023-04-07T04:06:44;8.00;99.90
10296;DHT22;5193;51.032;6.356;2023-04-07T04:09:09;8.00;99.90
10296;DHT22;5193;51.032;6.356;2023-04-07T04:11:35;8.00;99.90
10296;DHT22;5193;51.032;6.356;2023-04-07T04:14:01;8.00;99.90
10296;DHT22;5193;51.032;6.356;2023-04-07T04:16:27;8.00;99.90
10296;DHT22;5193;51.032;6.356;2023-04-07T04:18:53;8.00;99.90
10296;DHT22;5193;51.032;6.356;2023-04-07T04:21:18;8.00;99.90
10296;DHT22;5193;51.032;6.356;2023-04-07T04:23:44;8.00;99.90
10296;DHT22;5193;51.032;6.356;2023-04-07T04:26:09;8.00;99.90
10296;DHT22;5193;51.032;6.356;2023-04-07T04:28:35;8.00;99.90
10296;DHT22;5193;51.032;6.356;2023-04-07T04:31:01;8.00;99.90
10296;DHT22;5193;51.032;6.356;2023-04-07T04:33:26;7.90;99.90
10296;DHT22;5193;51.032;6.356;2023-04-07T04:35:52;7.90;99.90
10296;DHT22;5193;51.032;6.356;2023-04-07T04:38:18;7.90;99.90
10296;DHT22;5193;51.032;6.356;2023-04-07T04:40:43;7.90;99.90
10296;DHT22;5193;51.032;6.356;2023-04-07T04:43:09;7.90;99.90
10296;DHT22;5193;51.032;6.356;2023-04-07T04:45:35;7.90;99.90
10296;DHT22;5193;51.032;6.356;2023-04-07T04:48:01;7.90;99.90
10296;DHT22;5193;51.032;6.356;2023-04-07T04:50:26;7.90;99.90
10296;DHT22;5193;51.032;6.356;2023-04-07T04:52:52;7.90;99.90
10296;DHT22;5193;51.032;6.356;2023-04-07T04:55:17;7.90;99.90
10296;DHT22;5193;51.032;6.356;2023-04-07T04:57:43;7.90;99.90
10296;DHT22;5193;51.032;6.356;2023-04-07T05:00:09;7.80;99.90
10296;DHT22;5193;51.032;6.356;2023-04-07T05:02:36;7.80;99.90
10296;DHT22;5193;51.032;6.356;2023-04-07T05:05:01;7.90;99.90
10296;DHT22;5193;51.032;6.356;2023-04-07T05:07:28;7.80;99.90
10296;DHT22;5193;51.032;6.356;2023-04-07T05:09:54;7.90;99.90
10296;DHT22;5193;51.032;6.356;2023-04-07T05:12:20;7.80;99.90
10296;DHT22;5193;51.032;6.356;2023-04-07T05:14:46;7.80;99.90
10296;DHT22;5193;51.032;6.356;2023-04-07T05:17:11;7.80;99.90
10296;DHT22;5193;51.032;6.356;2023-04-07T05:19:37;7.80;99.90
10296;DHT22;5193;51.032;6.356;2023-04-07T05:22:02;7.80;99.90
10296;DHT22;5193;51.032;6.356;2023-04-07T05:24:28;7.80;99.90
10296;DHT22;5193;51.032;6.356;2023-04-07T05:26:54;7.80;99.90
10296;DHT22;5193;51.032;6.356;2023-04-07T05:29:20;7.70;99.90
10296;DHT22;5193;51.032;6.356;2023-04-07T05:31:46;7.70;99.90
10296;DHT22;5193;51.032;6.356;2023-04-07T05:34:12;7.70;99.90
10296;DHT22;5193;51.032;6.356;2023-04-07T05:36:37;7.70;99.90
10296;DHT22;5193;51.032;6.356;2023-04-07T05:39:03;7.70;99.90
10296;DHT22;5193;51.032;6.356;2023-04-07T05:41:28;7.60;99.90
10296;DHT22;5193;51.032;6.356;2023-04-07T05:43:54;7.60;99.90
10296;DHT22;5193;51.032;6.356;2023-04-07T05:46:19;7.60;99.90
10296;DHT22;5193;51.032;6.356;2023-04-07T05:48:45;7.60;99.90
10296;DHT22;5193;51.032;6.356;2023-04-07T05:51:11;7.60;99.90
10296;DHT22;5193;51.032;6.356;2023-04-07T05:53:36;7.60;99.90
10296;DHT22;5193;51.032;6.356;2023-04-07T05:56:02;7.60;99.90
10296;DHT22;5193;51.032;6.356;2023-04-07T05:58:27;7.60;99.90
10296;DHT22;5193;51.032;6.356;2023-04-07T06:00:53;7.60;99.90
10296;DHT22;5193;51.032;6.356;2023-04-07T06:03:18;7.60;99.90
10296;DHT22;5193;51.032;6.356;2023-04-07T06:05:47;7.60;99.90
10296;DHT22;5193;51.032;6.356;2023-04-07T06:08:13;7.60;99.90
10296;DHT22;5193;51.032;6.356;2023-04-07T06:10:38;7.60;99.90
10296;DHT22;5193;51.032;6.356;2023-04-07T06:13:06;7.70;99.90
10296;DHT22;5193;51.032;6.356;2023-04-07T06:15:32;7.70;99.90
10296;DHT22;5193;51.032;6.356;2023-04-07T06:17:58;7.70;99.90
10296;DHT22;5193;51.032;6.356;2023-04-07T06:20:23;7.70;99.90
10296;DHT22;5193;51.032;6.356;2023-04-07T06:22:49;7.70;99.90
10296;DHT22;5193;51.032;6.356;2023-04-07T06:25:15;7.70;99.90
10296;DHT22;5193;51.032;6.356;2023-04-07T06:27:40;7.70;99.90
10296;DHT22;5193;51.032;6.356;2023-04-07T06:30:07;7.70;99.90
10296;DHT22;5193;51.032;6.356;2023-04-07T06:32:32;7.70;99.90
10296;DHT22;5193;51.032;6.356;2023-04-07T06:34:58;7.70;99.90
10296;DHT22;5193;51.032;6.356;2023-04-07T06:37:23;7.80;99.90
10296;DHT22;5193;51.032;6.356;2023-04-07T06:39:50;7.80;99.90
10296;DHT22;5193;51.032;6.356;2023-04-07T06:42:16;7.80;99.90
10296;DHT22;5193;51.032;6.356;2023-04-07T06:44:41;7.80;99.90
10296;DHT22;5193;51.032;6.356;2023-04-07T06:47:07;7.80;99.90
10296;DHT22;5193;51.032;6.356;2023-04-07T06:49:33;7.80;99.90
10296;DHT22;5193;51.032;6.356;2023-04-07T06:51:59;7.90;99.90
10296;DHT22;5193;51.032;6.356;2023-04-07T06:54:24;7.90;99.90
10296;DHT22;5193;51.032;6.356;2023-04-07T06:56:50;7.90;99.90
10296;DHT22;5193;51.032;6.356;2023-04-07T06:59:16;7.90;99.90
10296;DHT22;5193;51.032;6.356;2023-04-07T07:01:41;7.90;99.90
10296;DHT22;5193;51.032;6.356;2023-04-07T07:04:08;7.90;99.90
10296;DHT22;5193;51.032;6.356;2023-04-07T07:06:33;7.90;99.90
10296;DHT22;5193;51.032;6.356;2023-04-07T07:08:59;8.00;99.90
10296;DHT22;5193;51.032;6.356;2023-04-07T07:11:27;8.00;99.90
10296;DHT22;5193;51.032;6.356;2023-04-07T07:13:52;8.00;99.90
10296;DHT22;5193;51.032;6.356;2023-04-07T07:16:18;8.00;99.90
10296;DHT22;5193;51.032;6.356;2023-04-07T07:18:43;8.10;99.90
10296;DHT22;5193;51.032;6.356;2023-04-07T07:21:09;8.10;99.90
10296;DHT22;5193;51.032;6.356;2023-04-07T07:23:35;8.20;99.90
10296;DHT22;5193;51.032;6.356;2023-04-07T07:26:00;8.20;99.90
10296;DHT22;5193;51.032;6.356;2023-04-07T07:28:26;8.30;99.90
10296;DHT22;5193;51.032;6.356;2023-04-07T07:30:53;8.30;99.90
10296;DHT22;5193;51.032;6.356;2023-04-07T07:33:19;8.30;99.90
10296;DHT22;5193;51.032;6.356;2023-04-07T07:35:47;8.30;99.90
10296;DHT22;5193;51.032;6.356;2023-04-07T07:38:12;8.40;99.90
10296;DHT22;5193;51.032;6.356;2023-04-07T07:40:38;8.40;99.90
10296;DHT22;5193;51.032;6.356;2023-04-07T07:43:03;8.40;99.90
10296;DHT22;5193;51.032;6.356;2023-04-07T07:45:30;8.40;99.90
10296;DHT22;5193;51.032;6.356;2023-04-07T07:47:56;8.40;99.90
10296;DHT22;5193;51.032;6.356;2023-04-07T07:50:21;8.40;99.90
10296;DHT22;5193;51.032;6.356;2023-04-07T07:52:47;8.40;99.90
10296;DHT22;5193;51.032;6.356;2023-04-07T07:55:12;8.50;99.90
10296;DHT22;5193;51.032;6.356;2023-04-07T07:57:38;8.50;99.90
10296;DHT22;5193;51.032;6.356;2023-04-07T08:00:04;8.50;99.90
10296;DHT22;5193;51.032;6.356;2023-04-07T08:02:30;8.50;99.90
10296;DHT22;5193;51.032;6.356;2023-04-07T08:04:58;8.50;99.90
10296;DHT22;5193;51.032;6.356;2023-04-07T08:07:24;8.50;99.90
10296;DHT22;5193;51.032;6.356;2023-04-07T08:09:49;8.50;99.90
10296;DHT22;5193;51.032;6.356;2023-04-07T08:12:15;8.50;99.90
10296;DHT22;5193;51.032;6.356;2023-04-07T08:14:41;8.50;99.90
10296;DHT22;5193;51.032;6.356;2023-04-07T08:17:06;8.50;99.90
10296;DHT22;5193;51.032;6.356;2023-04-07T08:19:32;8.50;99.90
10296;DHT22;5193;51.032;6.356;2023-04-07T08:21:57;8.50;99.90
10296;DHT22;5193;51.032;6.356;2023-04-07T08:24:23;8.50;99.90
10296;DHT22;5193;51.032;6.356;2023-04-07T08:26:48;8.60;99.90
10296;DHT22;5193;51.032;6.356;2023-04-07T08:29:14;8.60;99.90
10296;DHT22;5193;51.032;6.356;2023-04-07T08:31:40;8.60;99.90
10296;DHT22;5193;51.032;6.356;2023-04-07T08:34:06;8.60;99.90
10296;DHT22;5193;51.032;6.356;2023-04-07T08:36:31;8.70;99.90
10296;DHT22;5193;51.032;6.356;2023-04-07T08:38:57;8.70;99.90
10296;DHT22;5193;51.032;6.356;2023-04-07T08:41:37;8.70;99.90
10296;DHT22;5193;51.032;6.356;2023-04-07T08:44:03;8.70;99.90
10296;DHT22;5193;51.032;6.356;2023-04-07T08:46:30;8.70;99.90
10296;DHT22;5193;51.032;6.356;2023-04-07T08:48:58;8.70;99.90
10296;DHT22;5193;51.032;6.356;2023-04-07T08:51:31;8.70;99.90
10296;DHT22;5193;51.032;6.356;2023-04-07T08:54:17;8.70;99.90
10296;DHT22;5193;51.032;6.356;2023-04-07T08:56:43;8.70;99.90
10296;DHT22;5193;51.032;6.356;2023-04-07T08:59:13;8.70;99.90
10296;DHT22;5193;51.032;6.356;2023-04-07T09:01:40;8.80;99.90
10296;DHT22;5193;51.032;6.356;2023-04-07T09:04:09;8.80;99.90
10296;DHT22;5193;51.032;6.356;2023-04-07T09:06:35;8.90;99.90
10296;DHT22;5193;51.032;6.356;2023-04-07T09:09:01;8.90;99.90
10296;DHT22;5193;51.032;6.356;2023-04-07T09:11:28;9.00;99.90
10296;DHT22;5193;51.032;6.356;2023-04-07T09:13:55;9.10;99.90
10296;DHT22;5193;51.032;6.356;2023-04-07T09:16:21;9.10;99.90
10296;DHT22;5193;51.032;6.356;2023-04-07T09:18:48;9.20;99.90
10296;DHT22;5193;51.032;6.356;2023-04-07T09:21:13;9.20;99.90
10296;DHT22;5193;51.032;6.356;2023-04-07T09:23:40;9.30;99.90
10296;DHT22;5193;51.032;6.356;2023-04-07T09:26:26;9.30;99.90
10296;DHT22;5193;51.032;6.356;2023-04-07T09:28:54;9.30;99.90
10296;DHT22;5193;51.032;6.356;2023-04-07T09:31:21;9.20;99.90
10296;DHT22;5193;51.032;6.356;2023-04-07T09:33:48;9.20;99.90
10296;DHT22;5193;51.032;6.356;2023-04-07T09:36:14;9.10;99.90
10296;DHT22;5193;51.032;6.356;2023-04-07T09:38:41;9.10;99.90
10296;DHT22;5193;51.032;6.356;2023-04-07T09:41:15;9.00;99.90
10296;DHT22;5193;51.032;6.356;2023-04-07T09:43:43;9.10;99.90
10296;DHT22;5193;51.032;6.356;2023-04-07T09:46:17;9.20;99.90
10296;DHT22;5193;51.032;6.356;2023-04-07T09:48:44;9.20;99.90
10296;DHT22;5193;51.032;6.356;2023-04-07T09:51:14;9.40;99.90
10296;DHT22;5193;51.032;6.356;2023-04-07T09:56:10;9.60;99.90
10296;DHT22;5193;51.032;6.356;2023-04-07T09:58:39;9.70;99.90
10296;DHT22;5193;51.032;6.356;2023-04-07T10:01:06;9.70;99.90
10296;DHT22;5193;51.032;6.356;2023-04-07T10:03:33;9.60;99.90
10296;DHT22;5193;51.032;6.356;2023-04-07T10:06:02;9.60;99.90
10296;DHT22;5193;51.032;6.356;2023-04-07T10:08:29;9.60;99.90
10296;DHT22;5193;51.032;6.356;2023-04-07T10:10:56;9.50;99.90
10296;DHT22;5193;51.032;6.356;2023-04-07T10:13:23;9.50;99.90
10296;DHT22;5193;51.032;6.356;2023-04-07T10:15:50;9.50;99.90
10296;DHT22;5193;51.032;6.356;2023-04-07T10:18:16;9.60;99.90
10296;DHT22;5193;51.032;6.356;2023-04-07T10:20:44;9.60;99.90
10296;DHT22;5193;51.032;6.356;2023-04-07T10:23:19;9.70;99.90
10296;DHT22;5193;51.032;6.356;2023-04-07T10:25:48;9.80;99.90
10296;DHT22;5193;51.032;6.356;2023-04-07T10:28:14;9.80;99.90
10296;DHT22;5193;51.032;6.356;2023-04-07T10:30:41;9.90;99.90
10296;DHT22;5193;51.032;6.356;2023-04-07T10:33:07;10.00;99.90
10296;DHT22;5193;51.032;6.356;2023-04-07T10:38:11;10.10;99.90
10296;DHT22;5193;51.032;6.356;2023-04-07T10:40:38;10.10;99.90
10296;DHT22;5193;51.032;6.356;2023-04-07T10:43:05;10.00;99.90
10296;DHT22;5193;51.032;6.356;2023-04-07T10:48:10;9.90;99.90
10296;DHT22;5193;51.032;6.356;2023-04-07T10:50:37;9.80;99.90
10296;DHT22;5193;51.032;6.356;2023-04-07T10:53:10;9.80;99.90
10296;DHT22;5193;51.032;6.356;2023-04-07T10:55:44;9.70;99.90
10296;DHT22;5193;51.032;6.356;2023-04-07T10:58:22;9.70;99.90
10296;DHT22;5193;51.032;6.356;2023-04-07T11:03:37;9.70;99.90
10296;DHT22;5193;51.032;6.356;2023-04-07T11:08:43;9.90;99.90
10296;DHT22;5193;51.032;6.356;2023-04-07T11:11:10;10.00;99.90
10296;DHT22;5193;51.032;6.356;2023-04-07T11:16:08;10.10;99.90
10296;DHT22;5193;51.032;6.356;2023-04-07T11:18:35;10.10;99.90
10296;DHT22;5193;51.032;6.356;2023-04-07T11:21:02;10.00;99.90
10296;DHT22;5193;51.032;6.356;2023-04-07T11:23:39;10.10;99.90
10296;DHT22;5193;51.032;6.356;2023-04-07T11:26:07;10.10;99.90
10296;DHT22;5193;51.032;6.356;2023-04-07T11:28:33;10.10;99.90
10296;DHT22;5193;51.032;6.356;2023-04-07T11:30:59;10.10;99.90
10296;DHT22;5193;51.032;6.356;2023-04-07T11:33:26;10.10;99.90
10296;DHT22;5193;51.032;6.356;2023-04-07T11:35:57;10.10;99.90
10296;DHT22;5193;51.032;6.356;2023-04-07T11:38:28;10.10;99.90
10296;DHT22;5193;51.032;6.356;2023-04-07T11:40:55;10.20;99.90
10296;DHT22;5193;51.032;6.356;2023-04-07T11:43:26;10.20;99.90
10296;DHT22;5193;51.032;6.356;2023-04-07T11:46:12;10.10;99.90
10296;DHT22;5193;51.032;6.356;2023-04-07T11:48:40;10.10;99.90
10296;DHT22;5193;51.032;6.356;2023-04-07T11:51:17;10.10;99.90
10296;DHT22;5193;51.032;6.356;2023-04-07T11:53:43;10.20;99.90
10296;DHT22;5193;51.032;6.356;2023-04-07T11:56:12;10.20;99.90
10296;DHT22;5193;51.032;6.356;2023-04-07T12:01:13;10.20;99.90
10296;DHT22;5193;51.032;6.356;2023-04-07T12:06:31;10.30;99.90
10296;DHT22;5193;51.032;6.356;2023-04-07T12:09:02;10.30;99.90
10296;DHT22;5193;51.032;6.356;2023-04-07T12:11:28;10.40;99.90
10296;DHT22;5193;51.032;6.356;2023-04-07T12:13:54;10.40;99.90
10296;DHT22;5193;51.032;6.356;2023-04-07T12:16:21;10.50;99.90
10296;DHT22;5193;51.032;6.356;2023-04-07T12:18:47;10.50;99.90
10296;DHT22;5193;51.032;6.356;2023-04-07T12:21:13;10.60;99.90
10296;DHT22;5193;51.032;6.356;2023-04-07T12:23:39;10.50;99.90
10296;DHT22;5193;51.032;6.356;2023-04-07T12:26:05;10.60;99.90
10296;DHT22;5193;51.032;6.356;2023-04-07T12:28:31;10.50;99.90
10296;DHT22;5193;51.032;6.356;2023-04-07T12:30:56;10.50;99.90
10296;DHT22;5193;51.032;6.356;2023-04-07T12:33:23;10.60;99.90
10296;DHT22;5193;51.032;6.356;2023-04-07T12:35:48;10.70;99.90
10296;DHT22;5193;51.032;6.356;2023-04-07T12:38:14;10.80;99.90
10296;DHT22;5193;51.032;6.356;2023-04-07T12:40:40;10.80;99.90
10296;DHT22;5193;51.032;6.356;2023-04-07T12:43:06;10.90;99.90
10296;DHT22;5193;51.032;6.356;2023-04-07T12:45:32;10.90;99.90
10296;DHT22;5193;51.032;6.356;2023-04-07T12:47:58;10.80;99.90
10296;DHT22;5193;51.032;6.356;2023-04-07T12:50:23;10.80;99.90
10296;DHT22;5193;51.032;6.356;2023-04-07T12:52:50;10.70;99.90
10296;DHT22;5193;51.032;6.356;2023-04-07T12:55:16;10.50;99.90
10296;DHT22;5193;51.032;6.356;2023-04-07T12:57:42;10.40;99.90
10296;DHT22;5193;51.032;6.356;2023-04-07T13:00:08;10.40;99.90
10296;DHT22;5193;51.032;6.356;2023-04-07T13:02:34;10.30;99.90
10296;DHT22;5193;51.032;6.356;2023-04-07T13:05:01;10.30;99.90
10296;DHT22;5193;51.032;6.356;2023-04-07T13:07:27;10.30;99.90
10296;DHT22;5193;51.032;6.356;2023-04-07T13:09:53;10.30;99.90
10296;DHT22;5193;51.032;6.356;2023-04-07T13:12:19;10.40;99.90
10296;DHT22;5193;51.032;6.356;2023-04-07T13:14:45;10.40;99.90
10296;DHT22;5193;51.032;6.356;2023-04-07T13:17:11;10.40;99.90
10296;DHT22;5193;51.032;6.356;2023-04-07T13:19:37;10.40;99.90
10296;DHT22;5193;51.032;6.356;2023-04-07T13:22:03;10.40;99.90
10296;DHT22;5193;51.032;6.356;2023-04-07T13:24:28;10.50;99.90
10296;DHT22;5193;51.032;6.356;2023-04-07T13:26:54;10.40;99.90
10296;DHT22;5193;51.032;6.356;2023-04-07T13:29:22;10.50;99.90
10296;DHT22;5193;51.032;6.356;2023-04-07T13:31:47;10.60;99.90
10296;DHT22;5193;51.032;6.356;2023-04-07T13:34:14;10.70;99.90
10296;DHT22;5193;51.032;6.356;2023-04-07T13:36:40;10.90;99.90
10296;DHT22;5193;51.032;6.356;2023-04-07T13:39:06;10.90;99.90
10296;DHT22;5193;51.032;6.356;2023-04-07T13:41:32;11.00;99.90
10296;DHT22;5193;51.032;6.356;2023-04-07T13:43:58;11.10;99.90
10296;DHT22;5193;51.032;6.356;2023-04-07T13:46:25;11.20;99.90
10296;DHT22;5193;51.032;6.356;2023-04-07T13:48:51;11.20;99.90
10296;DHT22;5193;51.032;6.356;2023-04-07T13:51:17;11.20;99.90
10296;DHT22;5193;51.032;6.356;2023-04-07T13:53:44;11.00;99.90
10296;DHT22;5193;51.032;6.356;2023-04-07T13:56:09;10.80;99.90
10296;DHT22;5193;51.032;6.356;2023-04-07T13:58:35;10.70;99.90
10296;DHT22;5193;51.032;6.356;2023-04-07T14:01:02;10.60;99.90
10296;DHT22;5193;51.032;6.356;2023-04-07T14:03:28;10.60;99.90
10296;DHT22;5193;51.032;6.356;2023-04-07T14:05:53;10.60;99.90
10296;DHT22;5193;51.032;6.356;2023-04-07T14:08:20;10.50;99.90
10296;DHT22;5193;51.032;6.356;2023-04-07T14:10:51;10.60;99.90
10296;DHT22;5193;51.032;6.356;2023-04-07T14:13:16;10.50;99.90
10296;DHT22;5193;51.032;6.356;2023-04-07T14:15:42;10.50;99.90
10296;DHT22;5193;51.032;6.356;2023-04-07T14:18:08;10.40;99.90
10296;DHT22;5193;51.032;6.356;2023-04-07T14:20:33;10.40;99.90
10296;DHT22;5193;51.032;6.356;2023-04-07T14:22:59;10.40;99.90
10296;DHT22;5193;51.032;6.356;2023-04-07T14:25:24;10.30;99.90
10296;DHT22;5193;51.032;6.356;2023-04-07T14:27:51;10.30;99.90
10296;DHT22;5193;51.032;6.356;2023-04-07T14:30:17;10.30;99.90
10296;DHT22;5193;51.032;6.356;2023-04-07T14:32:43;10.30;99.90
10296;DHT22;5193;51.032;6.356;2023-04-07T14:35:08;10.40;99.90
10296;DHT22;5193;51.032;6.356;2023-04-07T14:37:34;10.30;99.90
10296;DHT22;5193;51.032;6.356;2023-04-07T14:40:01;10.30;99.90
10296;DHT22;5193;51.032;6.356;2023-04-07T14:42:28;10.40;99.90
10296;DHT22;5193;51.032;6.356;2023-04-07T14:44:58;10.40;99.90
10296;DHT22;5193;51.032;6.356;2023-04-07T14:47:24;10.40;99.90
10296;DHT22;5193;51.032;6.356;2023-04-07T14:49:51;10.30;99.90
10296;DHT22;5193;51.032;6.356;2023-04-07T14:52:17;10.40;99.90
10296;DHT22;5193;51.032;6.356;2023-04-07T14:54:42;10.40;99.90
10296;DHT22;5193;51.032;6.356;2023-04-07T14:57:08;10.40;99.90
10296;DHT22;5193;51.032;6.356;2023-04-07T14:59:34;10.40;99.90
10296;DHT22;5193;51.032;6.356;2023-04-07T15:01:59;10.40;99.90
10296;DHT22;5193;51.032;6.356;2023-04-07T15:04:25;10.50;99.90
10296;DHT22;5193;51.032;6.356;2023-04-07T15:06:50;10.50;99.90
10296;DHT22;5193;51.032;6.356;2023-04-07T15:09:16;10.50;99.90
10296;DHT22;5193;51.032;6.356;2023-04-07T15:11:43;10.60;99.90
10296;DHT22;5193;51.032;6.356;2023-04-07T15:14:10;10.60;99.90
10296;DHT22;5193;51.032;6.356;2023-04-07T15:16:36;10.70;99.90
10296;DHT22;5193;51.032;6.356;2023-04-07T15:19:01;10.60;99.90
10296;DHT22;5193;51.032;6.356;2023-04-07T15:21:27;10.60;99.90
10296;DHT22;5193;51.032;6.356;2023-04-07T15:23:52;10.70;99.90
10296;DHT22;5193;51.032;6.356;2023-04-07T15:26:18;10.70;99.90
10296;DHT22;5193;51.032;6.356;2023-04-07T15:28:43;10.80;99.90
10296;DHT22;5193;51.032;6.356;2023-04-07T15:31:09;10.80;99.90
10296;DHT22;5193;51.032;6.356;2023-04-07T15:33:35;10.80;99.90
10296;DHT22;5193;51.032;6.356;2023-04-07T15:36:02;10.80;99.90
10296;DHT22;5193;51.032;6.356;2023-04-07T15:38:28;10.80;99.90
10296;DHT22;5193;51.032;6.356;2023-04-07T15:40:54;10.80;99.90
10296;DHT22;5193;51.032;6.356;2023-04-07T15:43:20;10.70;99.90
10296;DHT22;5193;51.032;6.356;2023-04-07T15:45:46;10.70;99.90
10296;DHT22;5193;51.032;6.356;2023-04-07T15:48:12;10.70;99.90
10296;DHT22;5193;51.032;6.356;2023-04-07T15:50:38;10.70;99.90
10296;DHT22;5193;51.032;6.356;2023-04-07T15:53:05;10.60;99.90
10296;DHT22;5193;51.032;6.356;2023-04-07T15:55:31;10.50;99.90
10296;DHT22;5193;51.032;6.356;2023-04-07T15:57:57;10.50;99.90
10296;DHT22;5193;51.032;6.356;2023-04-07T16:00:24;10.40;99.90
10296;DHT22;5193;51.032;6.356;2023-04-07T16:02:50;10.40;99.90
10296;DHT22;5193;51.032;6.356;2023-04-07T16:05:15;10.40;99.90
10296;DHT22;5193;51.032;6.356;2023-04-07T16:07:41;10.30;99.90
10296;DHT22;5193;51.032;6.356;2023-04-07T16:10:07;10.30;99.90
10296;DHT22;5193;51.032;6.356;2023-04-07T16:12:33;10.30;99.90
10296;DHT22;5193;51.032;6.356;2023-04-07T16:15:01;10.20;99.90
10296;DHT22;5193;51.032;6.356;2023-04-07T16:17:26;10.20;99.90
10296;DHT22;5193;51.032;6.356;2023-04-07T16:19:53;10.20;99.90
10296;DHT22;5193;51.032;6.356;2023-04-07T16:22:18;10.30;99.90
10296;DHT22;5193;51.032;6.356;2023-04-07T16:24:45;10.30;99.90